createdAt,value
2017-06-25T00:00:21.887Z,63.10
2017-06-25T00:02:49.321Z,63.00
2017-06-25T00:05:16.771Z,63.30
2017-06-25T00:07:44.990Z,63.50
2017-06-25T00:10:13.607Z,63.40
2017-06-25T00:12:41.052Z,63.20
2017-06-25T00:15:08.506Z,63.50
2017-06-25T00:17:35.954Z,63.80
2017-06-25T00:20:03.411Z,63.90
2017-06-25T00:22:30.872Z,63.90
2017-06-25T00:25:08.555Z,63.80
2017-06-25T00:27:36.786Z,64.00
2017-06-25T00:30:04.989Z,64.30
2017-06-25T00:32:32.439Z,64.20
2017-06-25T00:35:00.112Z,64.30
2017-06-25T00:37:28.214Z,64.20
2017-06-25T00:39:55.657Z,64.00
2017-06-25T00:42:23.107Z,64.00
2017-06-25T00:44:50.549Z,63.70
2017-06-25T00:47:18.011Z,63.50
2017-06-25T00:49:45.451Z,63.40
2017-06-25T00:52:13.266Z,63.50
2017-06-25T00:54:40.708Z,63.90
2017-06-25T00:57:08.176Z,63.80
2017-06-25T00:59:35.614Z,64.10
2017-06-25T01:02:03.052Z,64.10
2017-06-25T01:04:30.512Z,64.10
2017-06-25T01:06:57.951Z,64.10
2017-06-25T01:09:25.399Z,64.00
2017-06-25T01:11:53.604Z,64.20
2017-06-25T01:14:21.061Z,64.90
2017-06-25T01:16:48.499Z,64.00
2017-06-25T01:19:15.956Z,64.10
2017-06-25T01:21:43.383Z,64.20
2017-06-25T01:33:10.267Z,64.50
2017-06-25T01:35:37.722Z,64.80
2017-06-25T01:38:05.167Z,64.90
2017-06-25T01:40:33.240Z,65.10
2017-06-25T01:43:00.676Z,64.90
2017-06-25T01:45:28.133Z,65.10
2017-06-25T01:47:55.575Z,65.10
2017-06-25T01:50:23.041Z,65.20
2017-06-25T01:52:50.474Z,65.40
2017-06-25T01:55:17.922Z,65.40
2017-06-25T01:57:46.151Z,65.90
2017-06-25T02:00:13.596Z,65.80
2017-06-25T02:02:41.048Z,65.80
2017-06-25T02:05:09.275Z,66.00
2017-06-25T02:07:38.456Z,66.40
2017-06-25T02:10:05.913Z,66.20
2017-06-25T02:12:33.366Z,66.20
2017-06-25T02:15:00.818Z,66.50
2017-06-25T02:17:28.267Z,66.70
2017-06-25T02:19:56.479Z,66.90
2017-06-25T02:22:23.926Z,67.10
2017-06-25T02:27:45.903Z,67.30
2017-06-25T02:30:13.338Z,67.50
2017-06-25T02:32:41.558Z,67.60
2017-06-25T02:35:08.993Z,67.60
2017-06-25T02:37:36.432Z,67.70
2017-06-25T02:40:03.871Z,67.70
2017-06-25T02:42:32.451Z,67.80
2017-06-25T02:44:59.902Z,68.20
2017-06-25T02:47:28.211Z,68.40
2017-06-25T02:49:55.659Z,68.60
2017-06-25T02:52:23.103Z,68.90
2017-06-25T02:54:50.555Z,69.10
2017-06-25T02:57:17.995Z,69.10
2017-06-25T02:59:45.448Z,69.20
2017-06-25T03:02:12.894Z,69.20
2017-06-25T03:04:40.341Z,69.30
2017-06-25T03:07:08.133Z,69.50
2017-06-25T03:09:47.423Z,69.50
2017-06-25T03:12:15.213Z,69.40
2017-06-25T03:14:42.635Z,70.10
2017-06-25T03:17:10.095Z,69.60
2017-06-25T03:19:37.534Z,69.50
2017-06-25T03:22:04.979Z,69.30
2017-06-25T03:24:53.418Z,69.30
2017-06-25T03:27:20.874Z,69.70
2017-06-25T03:29:48.318Z,69.60
2017-06-25T03:32:15.763Z,69.50
2017-06-25T03:34:43.203Z,69.70
2017-06-25T03:37:10.664Z,69.80
2017-06-25T03:39:38.104Z,69.70
2017-06-25T03:42:05.554Z,69.80
2017-06-25T03:44:32.986Z,70.10
2017-06-25T03:47:00.423Z,70.10
2017-06-25T03:49:27.875Z,70.30
2017-06-25T03:51:55.314Z,70.40
2017-06-25T03:54:22.762Z,70.40
2017-06-25T03:56:51.072Z,70.60
2017-06-25T03:59:18.534Z,70.50
2017-06-25T04:01:45.969Z,70.60
2017-06-25T04:04:24.315Z,70.40
2017-06-25T04:06:52.519Z,71.10
2017-06-25T04:09:19.975Z,70.20
2017-06-25T04:11:47.987Z,70.30
2017-06-25T04:14:15.443Z,70.30
2017-06-25T04:16:42.886Z,70.10
2017-06-25T04:19:10.334Z,69.60
2017-06-25T04:21:37.783Z,69.30
2017-06-25T04:24:16.350Z,69.20
2017-06-25T04:26:43.799Z,69.00
2017-06-25T04:29:11.232Z,69.00
2017-06-25T04:31:38.683Z,68.80
2017-06-25T04:34:06.127Z,68.90
2017-06-25T04:36:33.900Z,69.00
2017-06-25T04:39:01.347Z,69.20
2017-06-25T04:41:28.794Z,69.10
2017-06-25T04:43:56.248Z,69.30
2017-06-25T04:46:23.684Z,69.00
2017-06-25T04:48:52.818Z,68.50
2017-06-25T04:51:20.689Z,68.40
2017-06-25T04:53:49.059Z,67.70
2017-06-25T04:56:16.499Z,67.70
2017-06-25T04:58:43.947Z,67.50
2017-06-25T05:01:11.386Z,66.50
2017-06-25T05:03:38.835Z,66.00
2017-06-25T05:06:06.278Z,66.10
2017-06-25T05:08:33.731Z,65.50
2017-06-25T05:11:01.175Z,64.60
2017-06-25T05:13:28.623Z,64.20
2017-06-25T05:21:57.144Z,64.60
2017-06-25T05:30:27.570Z,65.60
2017-06-25T05:32:55.787Z,65.00
2017-06-25T05:35:23.241Z,64.80
2017-06-25T05:37:50.687Z,64.80
2017-06-25T05:40:19.076Z,64.10
2017-06-25T05:42:47.757Z,64.00
2017-06-25T05:45:15.188Z,63.20
2017-06-25T05:47:43.403Z,62.80
2017-06-25T05:50:10.850Z,62.70
2017-06-25T05:52:38.314Z,62.20
2017-06-25T05:55:05.755Z,61.60
2017-06-25T05:57:33.233Z,63.00
2017-06-25T06:00:01.095Z,62.00
2017-06-25T06:02:28.543Z,61.20
2017-06-25T06:04:56.001Z,61.30
2017-06-25T06:07:23.457Z,60.90
2017-06-25T06:09:50.891Z,59.90
2017-06-25T06:12:18.357Z,60.40
2017-06-25T06:14:45.795Z,61.10
2017-06-25T06:17:14.004Z,61.40
2017-06-25T06:19:41.459Z,61.30
2017-06-25T06:22:08.910Z,61.80
2017-06-25T06:24:36.974Z,62.10
2017-06-25T06:27:04.765Z,63.10
2017-06-25T06:29:32.215Z,63.30
2017-06-25T06:31:59.655Z,62.90
2017-06-25T06:34:27.124Z,63.50
2017-06-25T06:36:54.559Z,63.80
2017-06-25T06:39:22.010Z,64.60
2017-06-25T06:41:50.234Z,64.00
2017-06-25T06:44:17.674Z,64.90
2017-06-25T06:46:45.127Z,64.10
2017-06-25T06:49:12.580Z,64.10
2017-06-25T06:51:40.039Z,63.80
2017-06-25T06:54:07.475Z,64.30
2017-06-25T06:56:34.919Z,64.30
2017-06-25T06:59:02.360Z,64.20
2017-06-25T07:01:29.796Z,65.00
2017-06-25T07:03:57.239Z,65.50
2017-06-25T07:06:25.352Z,65.30
2017-06-25T07:08:53.562Z,64.20
2017-06-25T07:11:21.006Z,64.20
2017-06-25T07:13:48.447Z,63.70
2017-06-25T07:16:16.658Z,63.90
2017-06-25T07:18:44.479Z,63.70
2017-06-25T07:21:13.048Z,64.20
2017-06-25T07:23:47.059Z,64.10
2017-06-25T07:26:14.491Z,64.30
2017-06-25T07:28:41.946Z,65.20
2017-06-25T07:31:09.390Z,64.90
2017-06-25T07:33:36.843Z,64.70
2017-06-25T07:36:04.278Z,64.50
2017-06-25T07:38:31.742Z,63.90
2017-06-25T07:40:59.273Z,64.10
2017-06-25T07:43:28.014Z,64.70
2017-06-25T07:45:55.474Z,64.50
2017-06-25T07:48:22.915Z,63.90
2017-06-25T07:50:51.011Z,64.30
2017-06-25T07:53:18.450Z,65.60
2017-06-25T07:55:45.898Z,65.20
2017-06-25T07:58:13.338Z,63.90
2017-06-25T08:00:40.776Z,64.50
2017-06-25T08:03:08.989Z,66.30
2017-06-25T08:05:37.235Z,67.00
2017-06-25T08:08:04.675Z,66.10
2017-06-25T08:10:32.907Z,63.60
2017-06-25T08:13:00.340Z,63.50
2017-06-25T08:16:05.583Z,62.70
2017-06-25T08:18:33.020Z,62.60
2017-06-25T08:21:00.460Z,62.20
2017-06-25T08:23:30.764Z,62.00
2017-06-25T08:25:58.354Z,61.30
2017-06-25T08:28:26.578Z,60.90
2017-06-25T08:30:54.022Z,60.80
2017-06-25T08:33:21.477Z,61.00
2017-06-25T08:35:48.922Z,59.90
2017-06-25T08:38:16.393Z,60.00
2017-06-25T08:40:44.185Z,59.30
2017-06-25T08:43:12.558Z,59.50
2017-06-25T08:45:40.574Z,58.30
2017-06-25T08:48:08.783Z,59.00
2017-06-25T08:50:36.236Z,59.00
2017-06-25T08:53:03.677Z,59.50
2017-06-25T08:55:31.131Z,59.80
2017-06-25T08:57:58.571Z,59.50
2017-06-25T09:00:26.794Z,58.20
2017-06-25T09:02:54.243Z,58.10
2017-06-25T09:05:22.398Z,57.30
2017-06-25T09:07:49.839Z,56.80
2017-06-25T09:10:17.326Z,56.90
2017-06-25T09:12:45.848Z,57.10
2017-06-25T09:15:13.287Z,56.50
2017-06-25T09:17:40.751Z,55.80
2017-06-25T09:20:08.188Z,55.10
2017-06-25T09:22:35.655Z,53.90
2017-06-25T09:25:22.063Z,54.00
2017-06-25T09:27:49.599Z,53.10
2017-06-25T09:30:17.063Z,51.80
2017-06-25T09:32:44.523Z,51.20
2017-06-25T09:35:11.975Z,51.00
2017-06-25T09:37:40.199Z,50.90
2017-06-25T09:40:08.433Z,50.70
2017-06-25T09:42:35.892Z,50.50
2017-06-25T09:45:03.343Z,49.30
2017-06-25T09:47:31.247Z,49.90
2017-06-25T09:49:58.696Z,47.70
2017-06-25T09:52:26.175Z,48.00
2017-06-25T09:54:53.655Z,48.20
2017-06-25T09:57:21.110Z,49.10
2017-06-25T09:59:48.560Z,49.60
2017-06-25T10:02:15.998Z,49.30
2017-06-25T10:04:43.472Z,49.40
2017-06-25T10:07:10.930Z,50.20
2017-06-25T10:09:38.399Z,50.30
2017-06-25T10:12:05.847Z,51.60
2017-06-25T10:14:33.997Z,50.00
2017-06-25T10:17:02.203Z,49.20
2017-06-25T10:19:29.698Z,48.60
2017-06-25T10:21:57.153Z,47.80
2017-06-25T10:24:24.624Z,46.60
2017-06-25T10:26:52.080Z,45.70
2017-06-25T10:29:19.535Z,46.00
2017-06-25T10:31:47.015Z,44.40
2017-06-25T10:34:15.243Z,45.60
2017-06-25T10:36:42.699Z,45.50
2017-06-25T10:39:11.116Z,44.60
2017-06-25T10:41:38.583Z,44.50
2017-06-25T10:44:06.801Z,43.70
2017-06-25T10:46:34.262Z,43.60
2017-06-25T10:49:01.727Z,43.10
2017-06-25T10:51:29.527Z,42.80
2017-06-25T10:53:56.987Z,42.20
2017-06-25T10:56:25.212Z,42.30
2017-06-25T10:58:52.680Z,42.10
2017-06-25T11:01:20.909Z,43.30
2017-06-25T11:03:48.368Z,43.00
2017-06-25T11:06:17.365Z,44.30
2017-06-25T11:08:45.885Z,44.30
2017-06-25T11:11:13.346Z,44.30
2017-06-25T11:13:41.016Z,43.90
2017-06-25T11:25:13.971Z,44.50
2017-06-25T11:27:42.329Z,45.00
2017-06-25T11:30:09.795Z,44.40
2017-06-25T11:32:37.272Z,44.50
2017-06-25T11:35:04.767Z,45.30
2017-06-25T11:37:32.987Z,46.20
2017-06-25T11:40:00.456Z,46.10
2017-06-25T11:42:28.232Z,46.50
2017-06-25T11:44:55.762Z,45.80
2017-06-25T11:47:23.231Z,45.60
2017-06-25T11:49:50.678Z,46.10
2017-06-25T11:52:18.139Z,47.20
2017-06-25T11:54:45.692Z,47.50
2017-06-25T11:57:13.167Z,48.40
2017-06-25T11:59:40.641Z,48.60
2017-06-25T12:02:08.084Z,48.90
2017-06-25T12:04:35.539Z,47.90
2017-06-25T12:07:02.979Z,49.70
2017-06-25T12:09:30.453Z,50.50
2017-06-25T12:11:57.924Z,50.70
2017-06-25T12:14:25.374Z,49.70
2017-06-25T12:16:52.844Z,49.40
2017-06-25T12:19:21.076Z,47.60
2017-06-25T12:21:48.667Z,47.60
2017-06-25T12:24:16.119Z,47.40
2017-06-25T12:26:44.011Z,48.20
2017-06-25T12:29:11.486Z,48.70
2017-06-25T12:31:39.799Z,48.70
2017-06-25T12:39:54.984Z,49.30
2017-06-25T12:42:22.434Z,50.30
2017-06-25T12:44:49.882Z,51.90
2017-06-25T12:47:17.339Z,52.70
2017-06-25T12:49:44.783Z,53.00
2017-06-25T12:52:13.023Z,49.60
2017-06-25T12:54:40.479Z,49.50
2017-06-25T12:57:08.740Z,48.00
2017-06-25T12:59:36.195Z,49.30
2017-06-25T13:02:03.659Z,48.20
2017-06-25T13:04:31.111Z,49.10
2017-06-25T13:06:58.592Z,49.30
2017-06-25T13:09:27.211Z,49.00
2017-06-25T13:11:54.658Z,46.90
2017-06-25T13:14:22.884Z,47.60
2017-06-25T13:16:50.344Z,47.50
2017-06-25T13:19:17.816Z,49.60
2017-06-25T13:21:45.276Z,50.80
2017-06-25T13:24:12.742Z,51.30
2017-06-25T13:26:40.199Z,52.00
2017-06-25T13:29:07.692Z,52.00
2017-06-25T13:31:35.136Z,52.60
2017-06-25T13:34:02.568Z,52.70
2017-06-25T13:36:30.656Z,53.70
2017-06-25T13:38:58.869Z,55.70
2017-06-25T13:41:26.355Z,55.60
2017-06-25T13:43:53.799Z,55.60
2017-06-25T13:46:21.263Z,54.50
2017-06-25T13:48:48.728Z,53.90
2017-06-25T13:51:16.211Z,52.80
2017-06-25T13:53:44.436Z,51.60
2017-06-25T13:56:11.895Z,51.50
2017-06-25T13:58:39.348Z,52.10
2017-06-25T14:01:07.156Z,53.90
2017-06-25T14:03:34.619Z,54.40
2017-06-25T14:06:02.106Z,54.80
2017-06-25T14:08:29.560Z,55.50
2017-06-25T14:10:57.023Z,55.60
2017-06-25T14:13:24.475Z,55.20
2017-06-25T14:15:51.911Z,53.80
2017-06-25T14:18:20.492Z,52.60
2017-06-25T14:20:47.924Z,52.50
2017-06-25T14:23:15.387Z,53.10
2017-06-25T14:25:42.831Z,53.60
2017-06-25T14:28:10.719Z,54.00
2017-06-25T14:30:38.155Z,53.80
2017-06-25T14:33:05.621Z,54.10
2017-06-25T14:35:33.056Z,55.10
2017-06-25T14:38:00.520Z,55.10
2017-06-25T14:40:27.958Z,55.70
2017-06-25T14:42:55.398Z,56.20
2017-06-25T14:45:22.855Z,55.80
2017-06-25T14:47:50.295Z,56.40
2017-06-25T14:50:17.747Z,56.50
2017-06-25T14:52:45.183Z,56.20
2017-06-25T14:55:13.419Z,55.90
2017-06-25T14:57:40.900Z,55.60
2017-06-25T15:00:08.371Z,55.80
2017-06-25T15:02:35.823Z,55.50
2017-06-25T15:05:03.983Z,56.60
2017-06-25T15:07:31.499Z,57.30
2017-06-25T15:09:58.934Z,56.80
2017-06-25T15:12:26.383Z,56.10
2017-06-25T15:14:53.822Z,56.90
2017-06-25T15:17:21.276Z,57.00
2017-06-25T15:19:48.712Z,57.10
2017-06-25T15:22:16.675Z,57.80
2017-06-25T15:24:44.116Z,58.20
2017-06-25T15:27:11.567Z,58.60
2017-06-25T15:29:38.994Z,58.60
2017-06-25T15:32:08.430Z,59.40
2017-06-25T15:34:36.313Z,59.30
2017-06-25T15:37:03.771Z,59.40
2017-06-25T15:39:31.205Z,59.20
2017-06-25T15:41:58.635Z,58.50
2017-06-25T15:44:26.858Z,58.40
2017-06-25T15:46:54.299Z,58.30
2017-06-25T15:49:21.762Z,57.30
2017-06-25T15:51:49.420Z,56.90
2017-06-25T15:54:16.859Z,56.90
2017-06-25T15:56:44.519Z,56.30
2017-06-25T15:59:11.974Z,56.50
2017-06-25T16:01:40.183Z,55.50
2017-06-25T16:04:08.412Z,55.40
2017-06-25T16:06:35.863Z,54.90
2017-06-25T16:09:03.327Z,53.60
2017-06-25T16:11:31.474Z,52.30
2017-06-25T16:13:58.915Z,51.30
2017-06-25T16:16:27.195Z,50.80
2017-06-25T16:18:54.638Z,50.70
2017-06-25T16:21:22.886Z,51.40
2017-06-25T16:23:50.331Z,50.10
2017-06-25T16:26:18.559Z,50.80
2017-06-25T16:28:46.833Z,50.80
2017-06-25T16:31:14.311Z,51.60
2017-06-25T16:33:42.570Z,51.00
2017-06-25T16:36:10.994Z,50.00
2017-06-25T16:38:39.220Z,50.20
2017-06-25T16:41:06.647Z,50.20
2017-06-25T16:43:34.086Z,50.80
2017-06-25T16:46:01.530Z,52.40
2017-06-25T16:48:30.672Z,54.40
2017-06-25T16:50:58.090Z,54.30
2017-06-25T16:53:26.812Z,54.00
2017-06-25T16:55:54.247Z,53.90
2017-06-25T16:58:21.702Z,54.50
2017-06-25T17:00:49.134Z,54.10
2017-06-25T17:03:17.716Z,54.60
2017-06-25T17:05:45.687Z,54.60
2017-06-25T17:08:13.128Z,54.70
2017-06-25T17:10:40.566Z,54.70
2017-06-25T17:13:08.014Z,55.10
2017-06-25T17:15:35.473Z,55.30
2017-06-25T17:18:02.904Z,55.40
2017-06-25T17:20:31.251Z,55.30
2017-06-25T17:23:00.118Z,55.60
2017-06-25T17:25:27.586Z,55.50
2017-06-25T17:27:55.022Z,56.40
2017-06-25T17:30:22.466Z,55.60
2017-06-25T17:32:49.915Z,55.80
2017-06-25T17:35:17.351Z,56.20
2017-06-25T17:37:44.816Z,56.70
2017-06-25T17:40:13.150Z,57.20
2017-06-25T17:42:40.662Z,57.70
2017-06-25T17:45:08.092Z,58.00
2017-06-25T17:47:35.561Z,58.20
2017-06-25T17:50:03.759Z,58.20
2017-06-25T17:52:31.202Z,58.20
2017-06-25T17:54:58.662Z,58.20
2017-06-25T17:57:26.098Z,58.40
2017-06-25T17:59:53.546Z,58.30
2017-06-25T18:02:20.993Z,58.60
2017-06-25T18:04:49.211Z,59.00
2017-06-25T18:07:16.650Z,58.60
2017-06-25T18:09:44.884Z,58.20
2017-06-25T18:12:12.567Z,57.70
2017-06-25T18:14:40.790Z,57.70
2017-06-25T18:17:08.228Z,57.70
2017-06-25T18:19:35.658Z,57.70
2017-06-25T18:22:03.218Z,57.60
2017-06-25T18:24:30.654Z,57.80
2017-06-25T18:26:58.870Z,58.00
2017-06-25T18:29:26.315Z,57.80
2017-06-25T18:31:54.902Z,57.90
2017-06-25T18:34:22.334Z,57.70
2017-06-25T18:36:50.566Z,57.90
2017-06-25T18:39:17.999Z,57.90
2017-06-25T18:41:45.466Z,58.00
2017-06-25T18:44:12.902Z,58.30
2017-06-25T18:46:40.966Z,58.40
2017-06-25T18:49:08.411Z,58.80
2017-06-25T18:51:36.610Z,59.30
2017-06-25T18:54:04.416Z,59.30
2017-06-25T18:56:31.838Z,59.30
2017-06-25T18:58:59.297Z,59.30
2017-06-25T19:01:26.722Z,59.10
2017-06-25T19:03:54.174Z,58.90
2017-06-25T19:06:22.388Z,59.70
2017-06-25T19:08:49.863Z,59.60
2017-06-25T19:11:17.305Z,59.80
2017-06-25T19:13:44.739Z,60.60
2017-06-25T19:16:12.179Z,60.70
2017-06-25T19:18:40.351Z,62.00
2017-06-25T19:21:08.577Z,62.40
2017-06-25T19:23:36.022Z,62.40
2017-06-25T19:26:03.477Z,62.70
2017-06-25T19:28:30.915Z,62.70
2017-06-25T19:30:58.347Z,63.80
2017-06-25T19:33:26.565Z,64.50
2017-06-25T19:35:54.009Z,64.40
2017-06-25T19:38:21.454Z,65.60
2017-06-25T19:40:48.890Z,66.70
2017-06-25T19:43:17.109Z,70.20
2017-06-25T19:45:44.540Z,69.60
2017-06-25T19:48:12.003Z,70.90
2017-06-25T19:50:40.246Z,71.60
2017-06-25T19:53:09.105Z,73.00
2017-06-25T19:55:36.554Z,73.70
2017-06-25T19:58:04.619Z,74.60
2017-06-25T20:00:32.064Z,75.80
2017-06-25T20:02:59.497Z,76.30
2017-06-25T20:05:27.808Z,76.50
2017-06-25T20:07:55.223Z,76.50
2017-06-25T20:10:23.439Z,75.50
2017-06-25T20:12:50.895Z,75.50
2017-06-25T20:15:18.343Z,75.00
2017-06-25T20:17:45.778Z,75.10
2017-06-25T20:20:13.239Z,74.80
2017-06-25T20:22:41.123Z,74.60
2017-06-25T20:25:08.567Z,74.50
2017-06-25T20:27:36.352Z,74.60
2017-06-25T20:30:03.787Z,74.30
2017-06-25T20:32:32.124Z,74.40
2017-06-25T20:34:59.554Z,74.30
2017-06-25T20:37:27.016Z,74.20
2017-06-25T20:39:54.457Z,74.20
2017-06-25T20:42:22.518Z,74.00
2017-06-25T20:44:49.954Z,74.00
2017-06-25T20:47:17.407Z,74.10
2017-06-25T20:49:45.607Z,73.90
2017-06-25T20:52:13.046Z,73.80
2017-06-25T20:54:40.509Z,74.00
2017-06-25T20:57:08.703Z,72.90
2017-06-25T20:59:36.511Z,72.90
2017-06-25T21:02:03.940Z,72.80
2017-06-25T21:04:31.383Z,72.50
2017-06-25T21:06:59.760Z,72.80
2017-06-25T21:09:27.219Z,71.20
2017-06-25T21:11:54.650Z,71.10
2017-06-25T21:14:22.098Z,70.70
2017-06-25T21:16:50.304Z,70.70
2017-06-25T21:19:17.865Z,70.60
2017-06-25T21:21:45.286Z,70.40
2017-06-25T21:24:13.489Z,70.00
2017-06-25T21:26:40.935Z,70.00
2017-06-25T21:29:08.371Z,69.90
2017-06-25T21:31:36.582Z,71.20
2017-06-25T21:34:04.022Z,71.10
2017-06-25T21:36:31.467Z,71.30
2017-06-25T21:38:58.899Z,71.80
2017-06-25T21:41:26.411Z,71.90
2017-06-25T21:43:53.834Z,72.10
2017-06-25T21:46:21.278Z,72.60
2017-06-25T21:48:49.487Z,72.60
2017-06-25T21:51:16.931Z,72.40
2017-06-25T21:53:47.343Z,72.30
2017-06-25T21:56:15.543Z,72.90
2017-06-25T21:58:42.991Z,72.10
2017-06-25T22:01:10.430Z,71.90
2017-06-25T22:03:38.641Z,71.60
2017-06-25T22:06:06.078Z,71.60
2017-06-25T22:08:33.527Z,71.30
2017-06-25T22:11:00.967Z,71.10
2017-06-25T22:13:28.415Z,70.70
2017-06-25T22:15:55.967Z,71.40
2017-06-25T22:18:23.394Z,70.50
2017-06-25T22:20:50.840Z,70.10
2017-06-25T22:23:18.299Z,70.10
2017-06-25T22:25:45.735Z,70.20
2017-06-25T22:28:13.431Z,70.20
2017-06-25T22:30:40.977Z,70.10
2017-06-25T22:33:08.399Z,70.40
2017-06-25T22:35:36.615Z,70.60
2017-06-25T22:38:04.474Z,70.60
2017-06-25T22:40:31.912Z,70.70
2017-06-25T22:42:59.347Z,70.40
2017-06-25T22:45:27.551Z,70.60
2017-06-25T22:47:54.999Z,70.60
2017-06-25T22:50:22.439Z,70.70
2017-06-25T22:52:50.655Z,70.60
2017-06-25T22:55:18.101Z,70.60
2017-06-25T22:57:46.082Z,70.60
2017-06-25T23:00:14.287Z,70.70
2017-06-25T23:02:41.739Z,70.60
2017-06-25T23:05:09.182Z,70.60
2017-06-25T23:07:36.647Z,70.70
2017-06-25T23:10:04.087Z,70.90
2017-06-25T23:12:31.538Z,71.20
2017-06-25T23:17:55.910Z,72.00
2017-06-25T23:20:23.347Z,72.00
2017-06-25T23:22:51.558Z,72.80
2017-06-25T23:25:19.010Z,72.70
2017-06-25T23:27:46.434Z,72.50
2017-06-25T23:30:13.878Z,72.60
2017-06-25T23:32:41.316Z,72.40
2017-06-25T23:35:08.767Z,72.50
2017-06-25T23:37:36.206Z,72.70
2017-06-25T23:40:03.663Z,72.90
2017-06-25T23:42:32.255Z,72.90
2017-06-25T23:45:00.137Z,73.00
2017-06-25T23:47:28.492Z,73.20
2017-06-25T23:49:55.935Z,73.50
2017-06-25T23:52:23.366Z,73.80
2017-06-25T23:54:51.606Z,73.80
2017-06-25T23:57:19.047Z,73.60
2017-06-25T23:59:46.482Z,73.80
